sensor_id;sensor_type;location;lat;lon;timestamp;P1;durP1;ratioP1;P2;durP2;ratioP2
40252;SDS011;25972;51.854;4.534;2022-07-23T00:01:23;3.33;;;1.90;;
40252;SDS011;25972;51.854;4.534;2022-07-23T00:03:49;5.18;;;2.25;;
40252;SDS011;25972;51.854;4.534;2022-07-23T00:06:17;4.60;;;2.08;;
40252;SDS011;25972;51.854;4.534;2022-07-23T00:08:42;8.23;;;2.17;;
40252;SDS011;25972;51.854;4.534;2022-07-23T00:11:08;3.80;;;1.90;;
40252;SDS011;25972;51.854;4.534;2022-07-23T00:13:34;4.07;;;2.00;;
40252;SDS011;25972;51.854;4.534;2022-07-23T00:16:00;5.90;;;2.33;;
40252;SDS011;25972;51.854;4.534;2022-07-23T00:18:26;5.95;;;2.10;;
40252;SDS011;25972;51.854;4.534;2022-07-23T00:20:52;5.15;;;2.00;;
40252;SDS011;25972;51.854;4.534;2022-07-23T00:23:18;7.00;;;2.40;;
40252;SDS011;25972;51.854;4.534;2022-07-23T00:25:44;5.43;;;2.05;;
40252;SDS011;25972;51.854;4.534;2022-07-23T00:28:12;6.07;;;2.10;;
40252;SDS011;25972;51.854;4.534;2022-07-23T00:30:38;5.13;;;1.92;;
40252;SDS011;25972;51.854;4.534;2022-07-23T00:33:05;4.60;;;2.15;;
40252;SDS011;25972;51.854;4.534;2022-07-23T00:35:33;5.95;;;1.98;;
40252;SDS011;25972;51.854;4.534;2022-07-23T00:38:01;5.18;;;1.83;;
40252;SDS011;25972;51.854;4.534;2022-07-23T00:40:28;10.13;;;2.30;;
40252;SDS011;25972;51.854;4.534;2022-07-23T00:42:55;5.45;;;2.05;;
40252;SDS011;25972;51.854;4.534;2022-07-23T00:45:21;8.02;;;2.20;;
40252;SDS011;25972;51.854;4.534;2022-07-23T00:47:47;6.78;;;2.08;;
40252;SDS011;25972;51.854;4.534;2022-07-23T00:50:13;6.28;;;2.20;;
40252;SDS011;25972;51.854;4.534;2022-07-23T00:52:39;3.95;;;2.05;;
40252;SDS011;25972;51.854;4.534;2022-07-23T00:55:06;3.90;;;1.80;;
40252;SDS011;25972;51.854;4.534;2022-07-23T00:57:33;4.70;;;1.83;;
40252;SDS011;25972;51.854;4.534;2022-07-23T01:00:01;5.53;;;2.30;;
40252;SDS011;25972;51.854;4.534;2022-07-23T01:02:28;6.72;;;2.20;;
40252;SDS011;25972;51.854;4.534;2022-07-23T01:04:53;4.75;;;2.45;;
40252;SDS011;25972;51.854;4.534;2022-07-23T01:07:20;4.38;;;3.08;;
40252;SDS011;25972;51.854;4.534;2022-07-23T01:09:46;6.60;;;2.20;;
40252;SDS011;25972;51.854;4.534;2022-07-23T01:12:12;5.28;;;2.17;;
40252;SDS011;25972;51.854;4.534;2022-07-23T01:14:38;8.45;;;2.40;;
40252;SDS011;25972;51.854;4.534;2022-07-23T01:17:04;6.82;;;2.65;;
40252;SDS011;25972;51.854;4.534;2022-07-23T01:19:30;10.68;;;2.20;;
40252;SDS011;25972;51.854;4.534;2022-07-23T01:21:56;7.38;;;2.42;;
40252;SDS011;25972;51.854;4.534;2022-07-23T01:24:23;7.35;;;2.20;;
40252;SDS011;25972;51.854;4.534;2022-07-23T01:27:07;7.13;;;2.60;;
40252;SDS011;25972;51.854;4.534;2022-07-23T01:29:36;5.18;;;2.55;;
40252;SDS011;25972;51.854;4.534;2022-07-23T01:32:06;6.38;;;2.90;;
40252;SDS011;25972;51.854;4.534;2022-07-23T01:34:34;6.82;;;2.47;;
40252;SDS011;25972;51.854;4.534;2022-07-23T01:37:00;8.10;;;2.80;;
40252;SDS011;25972;51.854;4.534;2022-07-23T01:39:27;5.90;;;2.45;;
40252;SDS011;25972;51.854;4.534;2022-07-23T01:41:52;7.47;;;3.05;;
40252;SDS011;25972;51.854;4.534;2022-07-23T01:44:20;8.10;;;2.90;;
40252;SDS011;25972;51.854;4.534;2022-07-23T01:46:46;8.30;;;2.92;;
40252;SDS011;25972;51.854;4.534;2022-07-23T01:49:12;8.55;;;3.40;;
40252;SDS011;25972;51.854;4.534;2022-07-23T01:51:56;10.10;;;2.72;;
40252;SDS011;25972;51.854;4.534;2022-07-23T01:54:30;6.53;;;2.70;;
40252;SDS011;25972;51.854;4.534;2022-07-23T01:56:58;7.18;;;2.65;;
40252;SDS011;25972;51.854;4.534;2022-07-23T01:59:24;7.18;;;2.60;;
40252;SDS011;25972;51.854;4.534;2022-07-23T02:01:51;5.65;;;2.50;;
40252;SDS011;25972;51.854;4.534;2022-07-23T02:04:21;6.78;;;2.45;;
40252;SDS011;25972;51.854;4.534;2022-07-23T02:06:48;8.30;;;2.33;;
40252;SDS011;25972;51.854;4.534;2022-07-23T02:09:14;5.55;;;2.58;;
40252;SDS011;25972;51.854;4.534;2022-07-23T02:11:40;7.95;;;2.50;;
40252;SDS011;25972;51.854;4.534;2022-07-23T02:14:06;8.25;;;2.95;;
40252;SDS011;25972;51.854;4.534;2022-07-23T02:16:34;10.20;;;2.70;;
40252;SDS011;25972;51.854;4.534;2022-07-23T02:19:01;7.68;;;2.63;;
40252;SDS011;25972;51.854;4.534;2022-07-23T02:21:28;8.98;;;2.38;;
40252;SDS011;25972;51.854;4.534;2022-07-23T02:23:53;8.32;;;2.63;;
40252;SDS011;25972;51.854;4.534;2022-07-23T02:26:19;7.60;;;2.90;;
40252;SDS011;25972;51.854;4.534;2022-07-23T02:28:46;3.47;;;2.10;;
40252;SDS011;25972;51.854;4.534;2022-07-23T02:31:12;6.28;;;2.70;;
40252;SDS011;25972;51.854;4.534;2022-07-23T02:33:38;5.88;;;2.58;;
40252;SDS011;25972;51.854;4.534;2022-07-23T02:36:04;5.85;;;3.05;;
40252;SDS011;25972;51.854;4.534;2022-07-23T02:38:30;9.02;;;2.67;;
40252;SDS011;25972;51.854;4.534;2022-07-23T02:40:56;6.18;;;2.50;;
40252;SDS011;25972;51.854;4.534;2022-07-23T02:43:22;6.28;;;2.58;;
40252;SDS011;25972;51.854;4.534;2022-07-23T02:45:48;7.47;;;2.53;;
40252;SDS011;25972;51.854;4.534;2022-07-23T02:48:14;8.43;;;2.95;;
40252;SDS011;25972;51.854;4.534;2022-07-23T02:50:42;11.82;;;2.70;;
40252;SDS011;25972;51.854;4.534;2022-07-23T02:53:10;6.85;;;3.03;;
40252;SDS011;25972;51.854;4.534;2022-07-23T02:55:37;8.85;;;2.55;;
40252;SDS011;25972;51.854;4.534;2022-07-23T02:58:03;7.55;;;3.05;;
40252;SDS011;25972;51.854;4.534;2022-07-23T03:00:29;6.30;;;2.78;;
40252;SDS011;25972;51.854;4.534;2022-07-23T03:02:55;5.72;;;2.80;;
40252;SDS011;25972;51.854;4.534;2022-07-23T03:05:21;6.50;;;2.92;;
40252;SDS011;25972;51.854;4.534;2022-07-23T03:07:47;5.13;;;2.58;;
40252;SDS011;25972;51.854;4.534;2022-07-23T03:10:13;7.88;;;2.60;;
40252;SDS011;25972;51.854;4.534;2022-07-23T03:12:39;5.72;;;2.83;;
40252;SDS011;25972;51.854;4.534;2022-07-23T03:15:05;5.57;;;2.88;;
40252;SDS011;25972;51.854;4.534;2022-07-23T03:17:32;7.25;;;2.95;;
40252;SDS011;25972;51.854;4.534;2022-07-23T03:19:58;9.05;;;3.42;;
40252;SDS011;25972;51.854;4.534;2022-07-23T03:22:23;7.47;;;3.00;;
40252;SDS011;25972;51.854;4.534;2022-07-23T03:24:49;8.07;;;3.03;;
40252;SDS011;25972;51.854;4.534;2022-07-23T03:27:32;10.23;;;3.08;;
40252;SDS011;25972;51.854;4.534;2022-07-23T03:29:59;9.23;;;3.28;;
40252;SDS011;25972;51.854;4.534;2022-07-23T03:32:25;7.22;;;2.72;;
40252;SDS011;25972;51.854;4.534;2022-07-23T03:34:52;7.80;;;3.25;;
40252;SDS011;25972;51.854;4.534;2022-07-23T03:37:18;5.50;;;2.60;;
40252;SDS011;25972;51.854;4.534;2022-07-23T03:39:46;8.57;;;3.10;;
40252;SDS011;25972;51.854;4.534;2022-07-23T03:42:12;10.93;;;3.05;;
40252;SDS011;25972;51.854;4.534;2022-07-23T03:44:37;6.65;;;3.00;;
40252;SDS011;25972;51.854;4.534;2022-07-23T03:47:04;6.65;;;2.92;;
40252;SDS011;25972;51.854;4.534;2022-07-23T03:49:31;7.85;;;3.00;;
40252;SDS011;25972;51.854;4.534;2022-07-23T03:51:58;6.13;;;3.05;;
40252;SDS011;25972;51.854;4.534;2022-07-23T03:54:24;7.10;;;3.00;;
40252;SDS011;25972;51.854;4.534;2022-07-23T03:56:50;7.63;;;2.97;;
40252;SDS011;25972;51.854;4.534;2022-07-23T03:59:15;11.20;;;3.10;;
40252;SDS011;25972;51.854;4.534;2022-07-23T04:01:41;8.30;;;2.97;;
40252;SDS011;25972;51.854;4.534;2022-07-23T04:04:08;8.43;;;3.00;;
40252;SDS011;25972;51.854;4.534;2022-07-23T04:06:36;6.30;;;3.38;;
40252;SDS011;25972;51.854;4.534;2022-07-23T04:09:03;7.57;;;3.45;;
40252;SDS011;25972;51.854;4.534;2022-07-23T04:11:32;5.63;;;3.00;;
40252;SDS011;25972;51.854;4.534;2022-07-23T04:13:57;5.18;;;2.80;;
40252;SDS011;25972;51.854;4.534;2022-07-23T04:16:23;9.32;;;3.30;;
40252;SDS011;25972;51.854;4.534;2022-07-23T04:18:49;6.15;;;2.95;;
40252;SDS011;25972;51.854;4.534;2022-07-23T04:21:19;7.15;;;2.83;;
40252;SDS011;25972;51.854;4.534;2022-07-23T04:23:45;7.50;;;2.80;;
40252;SDS011;25972;51.854;4.534;2022-07-23T04:26:12;6.57;;;2.97;;
40252;SDS011;25972;51.854;4.534;2022-07-23T04:28:38;9.00;;;2.63;;
40252;SDS011;25972;51.854;4.534;2022-07-23T04:31:04;9.82;;;3.15;;
40252;SDS011;25972;51.854;4.534;2022-07-23T04:33:32;8.98;;;3.33;;
40252;SDS011;25972;51.854;4.534;2022-07-23T04:36:01;9.40;;;2.95;;
40252;SDS011;25972;51.854;4.534;2022-07-23T04:38:27;6.93;;;3.58;;
40252;SDS011;25972;51.854;4.534;2022-07-23T04:40:58;6.35;;;2.70;;
40252;SDS011;25972;51.854;4.534;2022-07-23T04:43:24;10.40;;;2.83;;
40252;SDS011;25972;51.854;4.534;2022-07-23T04:45:53;6.80;;;3.30;;
40252;SDS011;25972;51.854;4.534;2022-07-23T04:48:19;5.20;;;2.83;;
40252;SDS011;25972;51.854;4.534;2022-07-23T04:50:48;7.95;;;2.92;;
40252;SDS011;25972;51.854;4.534;2022-07-23T04:53:17;7.55;;;2.70;;
40252;SDS011;25972;51.854;4.534;2022-07-23T04:55:45;8.82;;;3.28;;
40252;SDS011;25972;51.854;4.534;2022-07-23T04:58:11;6.40;;;2.92;;
40252;SDS011;25972;51.854;4.534;2022-07-23T05:00:37;8.32;;;3.25;;
40252;SDS011;25972;51.854;4.534;2022-07-23T05:03:03;5.35;;;2.80;;
40252;SDS011;25972;51.854;4.534;2022-07-23T05:05:30;5.47;;;2.90;;
40252;SDS011;25972;51.854;4.534;2022-07-23T05:08:04;8.35;;;3.28;;
40252;SDS011;25972;51.854;4.534;2022-07-23T05:10:30;8.48;;;3.10;;
40252;SDS011;25972;51.854;4.534;2022-07-23T05:12:56;8.55;;;3.55;;
40252;SDS011;25972;51.854;4.534;2022-07-23T05:15:23;9.98;;;3.20;;
40252;SDS011;25972;51.854;4.534;2022-07-23T05:17:49;10.55;;;3.50;;
40252;SDS011;25972;51.854;4.534;2022-07-23T05:20:16;11.27;;;3.20;;
40252;SDS011;25972;51.854;4.534;2022-07-23T05:22:42;6.25;;;2.92;;
40252;SDS011;25972;51.854;4.534;2022-07-23T05:25:08;5.05;;;2.53;;
40252;SDS011;25972;51.854;4.534;2022-07-23T05:27:34;7.57;;;2.92;;
40252;SDS011;25972;51.854;4.534;2022-07-23T05:30:01;6.40;;;2.90;;
40252;SDS011;25972;51.854;4.534;2022-07-23T05:32:31;9.40;;;2.75;;
40252;SDS011;25972;51.854;4.534;2022-07-23T05:35:06;6.45;;;2.78;;
40252;SDS011;25972;51.854;4.534;2022-07-23T05:37:35;8.75;;;2.60;;
40252;SDS011;25972;51.854;4.534;2022-07-23T05:40:02;6.75;;;2.60;;
40252;SDS011;25972;51.854;4.534;2022-07-23T05:42:31;5.28;;;2.67;;
40252;SDS011;25972;51.854;4.534;2022-07-23T05:44:57;5.72;;;2.65;;
40252;SDS011;25972;51.854;4.534;2022-07-23T05:47:23;6.30;;;2.70;;
40252;SDS011;25972;51.854;4.534;2022-07-23T05:49:49;7.45;;;2.50;;
40252;SDS011;25972;51.854;4.534;2022-07-23T05:52:17;3.63;;;2.08;;
40252;SDS011;25972;51.854;4.534;2022-07-23T05:55:02;4.35;;;2.10;;
40252;SDS011;25972;51.854;4.534;2022-07-23T05:57:28;3.55;;;2.20;;
40252;SDS011;25972;51.854;4.534;2022-07-23T05:59:54;6.63;;;2.25;;
40252;SDS011;25972;51.854;4.534;2022-07-23T06:02:19;5.00;;;2.55;;
40252;SDS011;25972;51.854;4.534;2022-07-23T06:04:46;5.40;;;1.90;;
40252;SDS011;25972;51.854;4.534;2022-07-23T06:07:24;5.68;;;2.05;;
40252;SDS011;25972;51.854;4.534;2022-07-23T06:09:51;7.07;;;2.10;;
40252;SDS011;25972;51.854;4.534;2022-07-23T06:12:17;5.43;;;2.00;;
40252;SDS011;25972;51.854;4.534;2022-07-23T06:14:44;5.13;;;2.10;;
40252;SDS011;25972;51.854;4.534;2022-07-23T06:17:09;4.60;;;1.92;;
40252;SDS011;25972;51.854;4.534;2022-07-23T06:19:36;4.63;;;1.90;;
40252;SDS011;25972;51.854;4.534;2022-07-23T06:22:02;7.75;;;2.22;;
40252;SDS011;25972;51.854;4.534;2022-07-23T06:24:28;5.65;;;2.45;;
40252;SDS011;25972;51.854;4.534;2022-07-23T06:26:54;5.45;;;2.20;;
40252;SDS011;25972;51.854;4.534;2022-07-23T06:29:20;6.82;;;2.17;;
40252;SDS011;25972;51.854;4.534;2022-07-23T06:31:46;10.57;;;2.67;;
40252;SDS011;25972;51.854;4.534;2022-07-23T06:34:13;8.23;;;2.55;;
40252;SDS011;25972;51.854;4.534;2022-07-23T06:36:39;6.07;;;2.50;;
40252;SDS011;25972;51.854;4.534;2022-07-23T06:39:05;8.80;;;3.03;;
40252;SDS011;25972;51.854;4.534;2022-07-23T06:41:30;5.45;;;2.33;;
40252;SDS011;25972;51.854;4.534;2022-07-23T06:43:56;6.95;;;2.60;;
40252;SDS011;25972;51.854;4.534;2022-07-23T06:46:22;6.07;;;2.35;;
40252;SDS011;25972;51.854;4.534;2022-07-23T06:48:49;8.00;;;2.38;;
40252;SDS011;25972;51.854;4.534;2022-07-23T06:51:14;7.30;;;2.50;;
40252;SDS011;25972;51.854;4.534;2022-07-23T06:53:40;4.78;;;2.28;;
40252;SDS011;25972;51.854;4.534;2022-07-23T06:56:08;10.75;;;1.95;;
40252;SDS011;25972;51.854;4.534;2022-07-23T06:58:34;7.13;;;2.08;;
40252;SDS011;25972;51.854;4.534;2022-07-23T07:01:00;6.80;;;2.50;;
40252;SDS011;25972;51.854;4.534;2022-07-23T07:03:26;9.02;;;2.08;;
40252;SDS011;25972;51.854;4.534;2022-07-23T07:05:51;4.15;;;1.70;;
40252;SDS011;25972;51.854;4.534;2022-07-23T07:08:18;3.58;;;1.73;;
40252;SDS011;25972;51.854;4.534;2022-07-23T07:10:44;3.65;;;1.77;;
40252;SDS011;25972;51.854;4.534;2022-07-23T07:13:10;5.75;;;1.80;;
40252;SDS011;25972;51.854;4.534;2022-07-23T07:15:36;5.47;;;1.77;;
40252;SDS011;25972;51.854;4.534;2022-07-23T07:18:01;4.25;;;1.42;;
40252;SDS011;25972;51.854;4.534;2022-07-23T07:20:27;5.72;;;2.17;;
40252;SDS011;25972;51.854;4.534;2022-07-23T07:22:53;4.63;;;1.75;;
40252;SDS011;25972;51.854;4.534;2022-07-23T07:25:19;7.32;;;1.80;;
40252;SDS011;25972;51.854;4.534;2022-07-23T07:27:44;6.25;;;1.80;;
40252;SDS011;25972;51.854;4.534;2022-07-23T07:30:11;4.20;;;1.50;;
40252;SDS011;25972;51.854;4.534;2022-07-23T07:32:37;4.60;;;1.67;;
40252;SDS011;25972;51.854;4.534;2022-07-23T07:35:03;5.65;;;1.55;;
40252;SDS011;25972;51.854;4.534;2022-07-23T07:37:29;4.57;;;1.70;;
40252;SDS011;25972;51.854;4.534;2022-07-23T07:39:55;4.50;;;1.60;;
40252;SDS011;25972;51.854;4.534;2022-07-23T07:42:21;4.13;;;1.40;;
40252;SDS011;25972;51.854;4.534;2022-07-23T07:44:47;5.18;;;1.50;;
40252;SDS011;25972;51.854;4.534;2022-07-23T07:47:12;7.35;;;1.80;;
40252;SDS011;25972;51.854;4.534;2022-07-23T07:49:40;3.08;;;1.60;;
40252;SDS011;25972;51.854;4.534;2022-07-23T07:52:07;4.00;;;1.48;;
40252;SDS011;25972;51.854;4.534;2022-07-23T07:54:32;6.88;;;1.73;;
40252;SDS011;25972;51.854;4.534;2022-07-23T07:56:59;4.32;;;1.80;;
40252;SDS011;25972;51.854;4.534;2022-07-23T07:59:25;5.30;;;1.60;;
40252;SDS011;25972;51.854;4.534;2022-07-23T08:01:51;5.68;;;1.65;;
40252;SDS011;25972;51.854;4.534;2022-07-23T08:04:17;5.07;;;1.50;;
40252;SDS011;25972;51.854;4.534;2022-07-23T08:06:49;3.75;;;1.73;;
40252;SDS011;25972;51.854;4.534;2022-07-23T08:09:14;6.13;;;2.00;;
40252;SDS011;25972;51.854;4.534;2022-07-23T08:11:40;5.00;;;1.52;;
40252;SDS011;25972;51.854;4.534;2022-07-23T08:14:06;4.75;;;1.70;;
40252;SDS011;25972;51.854;4.534;2022-07-23T08:16:34;6.22;;;1.77;;
40252;SDS011;25972;51.854;4.534;2022-07-23T08:19:00;4.95;;;1.75;;
40252;SDS011;25972;51.854;4.534;2022-07-23T08:21:27;5.50;;;1.67;;
40252;SDS011;25972;51.854;4.534;2022-07-23T08:23:53;6.60;;;1.90;;
40252;SDS011;25972;51.854;4.534;2022-07-23T08:26:19;5.07;;;1.75;;
40252;SDS011;25972;51.854;4.534;2022-07-23T08:28:48;4.15;;;1.80;;
40252;SDS011;25972;51.854;4.534;2022-07-23T08:31:14;5.82;;;2.10;;
40252;SDS011;25972;51.854;4.534;2022-07-23T08:33:42;7.80;;;1.92;;
40252;SDS011;25972;51.854;4.534;2022-07-23T08:36:07;5.18;;;1.90;;
40252;SDS011;25972;51.854;4.534;2022-07-23T08:38:34;8.85;;;3.72;;
40252;SDS011;25972;51.854;4.534;2022-07-23T08:41:00;9.25;;;2.53;;
40252;SDS011;25972;51.854;4.534;2022-07-23T08:43:30;2.95;;;1.65;;
40252;SDS011;25972;51.854;4.534;2022-07-23T08:46:01;4.07;;;1.85;;
40252;SDS011;25972;51.854;4.534;2022-07-23T08:48:28;6.85;;;2.40;;
40252;SDS011;25972;51.854;4.534;2022-07-23T08:50:56;5.15;;;2.10;;
40252;SDS011;25972;51.854;4.534;2022-07-23T08:53:24;6.05;;;2.10;;
40252;SDS011;25972;51.854;4.534;2022-07-23T08:55:52;9.35;;;2.35;;
40252;SDS011;25972;51.854;4.534;2022-07-23T08:58:28;6.93;;;2.38;;
40252;SDS011;25972;51.854;4.534;2022-07-23T09:00:56;6.72;;;2.22;;
40252;SDS011;25972;51.854;4.534;2022-07-23T09:03:23;5.20;;;2.45;;
40252;SDS011;25972;51.854;4.534;2022-07-23T09:06:01;5.10;;;2.30;;
40252;SDS011;25972;51.854;4.534;2022-07-23T09:08:34;5.65;;;1.90;;
40252;SDS011;25972;51.854;4.534;2022-07-23T09:11:08;6.20;;;2.00;;
40252;SDS011;25972;51.854;4.534;2022-07-23T09:13:39;6.80;;;2.10;;
40252;SDS011;25972;51.854;4.534;2022-07-23T09:16:13;4.15;;;2.08;;
40252;SDS011;25972;51.854;4.534;2022-07-23T09:18:52;4.60;;;1.70;;
40252;SDS011;25972;51.854;4.534;2022-07-23T09:21:25;6.05;;;2.05;;
40252;SDS011;25972;51.854;4.534;2022-07-23T09:24:11;6.32;;;2.08;;
40252;SDS011;25972;51.854;4.534;2022-07-23T09:26:44;6.50;;;1.92;;
40252;SDS011;25972;51.854;4.534;2022-07-23T09:31:46;6.47;;;2.00;;
40252;SDS011;25972;51.854;4.534;2022-07-23T09:34:30;5.65;;;2.15;;
40252;SDS011;25972;51.854;4.534;2022-07-23T09:37:22;4.93;;;1.80;;
40252;SDS011;25972;51.854;4.534;2022-07-23T09:39:52;4.68;;;1.70;;
40252;SDS011;25972;51.854;4.534;2022-07-23T09:42:33;19.25;;;2.00;;
40252;SDS011;25972;51.854;4.534;2022-07-23T09:44:59;5.93;;;1.90;;
40252;SDS011;25972;51.854;4.534;2022-07-23T09:47:26;4.82;;;1.88;;
40252;SDS011;25972;51.854;4.534;2022-07-23T09:50:01;4.45;;;1.90;;
40252;SDS011;25972;51.854;4.534;2022-07-23T09:52:34;4.93;;;1.50;;
40252;SDS011;25972;51.854;4.534;2022-07-23T09:55:07;5.57;;;1.90;;
40252;SDS011;25972;51.854;4.534;2022-07-23T09:57:33;6.70;;;1.63;;
40252;SDS011;25972;51.854;4.534;2022-07-23T10:00:04;5.20;;;1.55;;
40252;SDS011;25972;51.854;4.534;2022-07-23T10:02:34;3.83;;;1.80;;
40252;SDS011;25972;51.854;4.534;2022-07-23T10:05:19;4.65;;;1.63;;
40252;SDS011;25972;51.854;4.534;2022-07-23T10:08:06;3.67;;;1.67;;
40252;SDS011;25972;51.854;4.534;2022-07-23T10:10:54;4.38;;;1.58;;
40252;SDS011;25972;51.854;4.534;2022-07-23T10:13:27;7.57;;;1.70;;
40252;SDS011;25972;51.854;4.534;2022-07-23T10:16:12;3.58;;;1.60;;
40252;SDS011;25972;51.854;4.534;2022-07-23T10:18:38;5.78;;;1.70;;
40252;SDS011;25972;51.854;4.534;2022-07-23T10:21:05;6.13;;;1.90;;
40252;SDS011;25972;51.854;4.534;2022-07-23T10:26:41;3.10;;;1.58;;
40252;SDS011;25972;51.854;4.534;2022-07-23T10:31:29;4.95;;;1.80;;
40252;SDS011;25972;51.854;4.534;2022-07-23T10:36:55;3.53;;;1.55;;
40252;SDS011;25972;51.854;4.534;2022-07-23T10:39:30;4.20;;;1.50;;
40252;SDS011;25972;51.854;4.534;2022-07-23T10:42:07;3.15;;;1.45;;
40252;SDS011;25972;51.854;4.534;2022-07-23T10:44:53;5.55;;;1.48;;
40252;SDS011;25972;51.854;4.534;2022-07-23T10:47:26;3.00;;;1.42;;
40252;SDS011;25972;51.854;4.534;2022-07-23T10:55:43;4.93;;;1.90;;
40252;SDS011;25972;51.854;4.534;2022-07-23T10:58:11;4.38;;;1.50;;
40252;SDS011;25972;51.854;4.534;2022-07-23T11:00:46;3.25;;;1.67;;
40252;SDS011;25972;51.854;4.534;2022-07-23T11:03:28;6.82;;;2.15;;
40252;SDS011;25972;51.854;4.534;2022-07-23T11:05:58;6.70;;;1.65;;
40252;SDS011;25972;51.854;4.534;2022-07-23T11:08:24;2.65;;;1.52;;
40252;SDS011;25972;51.854;4.534;2022-07-23T11:13:28;3.97;;;2.30;;
40252;SDS011;25972;51.854;4.534;2022-07-23T11:16:03;2.33;;;1.50;;
40252;SDS011;25972;51.854;4.534;2022-07-23T11:18:56;4.00;;;2.28;;
40252;SDS011;25972;51.854;4.534;2022-07-23T11:24:12;6.13;;;2.15;;
40252;SDS011;25972;51.854;4.534;2022-07-23T11:34:45;5.07;;;2.10;;
40252;SDS011;25972;51.854;4.534;2022-07-23T11:39:59;4.50;;;2.20;;
40252;SDS011;25972;51.854;4.534;2022-07-23T11:42:26;5.47;;;2.33;;
40252;SDS011;25972;51.854;4.534;2022-07-23T11:44:51;5.65;;;2.05;;
40252;SDS011;25972;51.854;4.534;2022-07-23T11:47:22;6.53;;;2.30;;
40252;SDS011;25972;51.854;4.534;2022-07-23T11:49:54;4.40;;;2.22;;
40252;SDS011;25972;51.854;4.534;2022-07-23T11:52:23;5.65;;;2.60;;
40252;SDS011;25972;51.854;4.534;2022-07-23T11:54:54;3.60;;;2.10;;
40252;SDS011;25972;51.854;4.534;2022-07-23T11:57:26;3.67;;;1.70;;
40252;SDS011;25972;51.854;4.534;2022-07-23T12:00:36;4.47;;;1.67;;
40252;SDS011;25972;51.854;4.534;2022-07-23T12:02:49;6.07;;;2.30;;
40252;SDS011;25972;51.854;4.534;2022-07-23T12:05:24;4.00;;;2.15;;
40252;SDS011;25972;51.854;4.534;2022-07-23T12:07:52;4.43;;;2.20;;
40252;SDS011;25972;51.854;4.534;2022-07-23T12:10:20;3.47;;;2.50;;
40252;SDS011;25972;51.854;4.534;2022-07-23T12:12:51;4.07;;;2.22;;
40252;SDS011;25972;51.854;4.534;2022-07-23T12:15:30;6.05;;;2.28;;
40252;SDS011;25972;51.854;4.534;2022-07-23T12:17:58;6.18;;;3.22;;
40252;SDS011;25972;51.854;4.534;2022-07-23T12:20:30;5.10;;;2.40;;
40252;SDS011;25972;51.854;4.534;2022-07-23T12:22:59;5.50;;;2.30;;
40252;SDS011;25972;51.854;4.534;2022-07-23T12:25:28;7.05;;;3.03;;
40252;SDS011;25972;51.854;4.534;2022-07-23T12:27:59;3.20;;;2.00;;
40252;SDS011;25972;51.854;4.534;2022-07-23T12:33:11;4.25;;;1.63;;
40252;SDS011;25972;51.854;4.534;2022-07-23T12:35:47;4.57;;;2.65;;
40252;SDS011;25972;51.854;4.534;2022-07-23T12:38:15;5.32;;;2.42;;
40252;SDS011;25972;51.854;4.534;2022-07-23T12:40:46;4.00;;;2.10;;
40252;SDS011;25972;51.854;4.534;2022-07-23T12:50:49;5.35;;;2.40;;
40252;SDS011;25972;51.854;4.534;2022-07-23T12:53:26;4.53;;;2.03;;
40252;SDS011;25972;51.854;4.534;2022-07-23T12:56:07;5.10;;;2.30;;
40252;SDS011;25972;51.854;4.534;2022-07-23T13:01:27;5.00;;;2.55;;
40252;SDS011;25972;51.854;4.534;2022-07-23T13:06:23;2.53;;;2.05;;
40252;SDS011;25972;51.854;4.534;2022-07-23T13:08:49;5.57;;;2.60;;
40252;SDS011;25972;51.854;4.534;2022-07-23T13:11:15;4.18;;;2.08;;
40252;SDS011;25972;51.854;4.534;2022-07-23T13:13:41;5.32;;;2.75;;
40252;SDS011;25972;51.854;4.534;2022-07-23T13:16:06;4.65;;;2.03;;
40252;SDS011;25972;51.854;4.534;2022-07-23T13:18:32;5.13;;;2.30;;
40252;SDS011;25972;51.854;4.534;2022-07-23T13:20:58;4.57;;;2.45;;
40252;SDS011;25972;51.854;4.534;2022-07-23T13:23:24;4.47;;;2.22;;
40252;SDS011;25972;51.854;4.534;2022-07-23T13:25:50;5.38;;;2.40;;
40252;SDS011;25972;51.854;4.534;2022-07-23T13:28:17;5.93;;;2.47;;
40252;SDS011;25972;51.854;4.534;2022-07-23T13:30:44;3.33;;;1.88;;
40252;SDS011;25972;51.854;4.534;2022-07-23T13:33:11;3.78;;;1.95;;
40252;SDS011;25972;51.854;4.534;2022-07-23T13:35:37;4.30;;;1.80;;
40252;SDS011;25972;51.854;4.534;2022-07-23T13:38:04;5.40;;;2.00;;
40252;SDS011;25972;51.854;4.534;2022-07-23T13:40:36;3.58;;;1.95;;
40252;SDS011;25972;51.854;4.534;2022-07-23T13:43:05;5.97;;;2.13;;
40252;SDS011;25972;51.854;4.534;2022-07-23T13:45:32;5.85;;;2.22;;
40252;SDS011;25972;51.854;4.534;2022-07-23T13:47:59;3.88;;;1.80;;
40252;SDS011;25972;51.854;4.534;2022-07-23T13:50:25;5.43;;;1.60;;
40252;SDS011;25972;51.854;4.534;2022-07-23T13:52:51;3.92;;;1.38;;
40252;SDS011;25972;51.854;4.534;2022-07-23T13:55:17;4.25;;;1.50;;
40252;SDS011;25972;51.854;4.534;2022-07-23T13:57:43;2.03;;;1.35;;
40252;SDS011;25972;51.854;4.534;2022-07-23T14:00:09;5.22;;;1.50;;
40252;SDS011;25972;51.854;4.534;2022-07-23T14:02:37;4.68;;;1.33;;
40252;SDS011;25972;51.854;4.534;2022-07-23T14:05:07;3.53;;;1.27;;
40252;SDS011;25972;51.854;4.534;2022-07-23T14:07:40;3.97;;;1.00;;
40252;SDS011;25972;51.854;4.534;2022-07-23T14:10:08;2.00;;;0.98;;
40252;SDS011;25972;51.854;4.534;2022-07-23T14:12:34;1.48;;;1.10;;
40252;SDS011;25972;51.854;4.534;2022-07-23T14:15:00;2.88;;;1.17;;
40252;SDS011;25972;51.854;4.534;2022-07-23T14:17:47;2.65;;;1.40;;
40252;SDS011;25972;51.854;4.534;2022-07-23T14:20:15;1.80;;;1.20;;
40252;SDS011;25972;51.854;4.534;2022-07-23T14:22:41;1.98;;;1.20;;
40252;SDS011;25972;51.854;4.534;2022-07-23T14:25:11;1.52;;;1.40;;
40252;SDS011;25972;51.854;4.534;2022-07-23T14:27:46;1.73;;;1.20;;
40252;SDS011;25972;51.854;4.534;2022-07-23T14:30:13;3.17;;;1.65;;
40252;SDS011;25972;51.854;4.534;2022-07-23T14:32:40;2.25;;;1.40;;
40252;SDS011;25972;51.854;4.534;2022-07-23T14:35:06;2.30;;;1.42;;
40252;SDS011;25972;51.854;4.534;2022-07-23T14:37:33;2.50;;;1.45;;
40252;SDS011;25972;51.854;4.534;2022-07-23T14:39:59;6.55;;;1.70;;
40252;SDS011;25972;51.854;4.534;2022-07-23T14:42:25;2.92;;;1.55;;
40252;SDS011;25972;51.854;4.534;2022-07-23T14:44:53;5.72;;;1.70;;
40252;SDS011;25972;51.854;4.534;2022-07-23T14:47:19;2.92;;;1.70;;
40252;SDS011;25972;51.854;4.534;2022-07-23T14:49:44;3.65;;;2.17;;
40252;SDS011;25972;51.854;4.534;2022-07-23T14:52:10;4.38;;;1.90;;
40252;SDS011;25972;51.854;4.534;2022-07-23T14:54:45;4.60;;;2.22;;
40252;SDS011;25972;51.854;4.534;2022-07-23T14:57:13;4.78;;;2.20;;
40252;SDS011;25972;51.854;4.534;2022-07-23T14:59:39;4.85;;;2.10;;
40252;SDS011;25972;51.854;4.534;2022-07-23T15:02:08;4.70;;;2.25;;
40252;SDS011;25972;51.854;4.534;2022-07-23T15:04:33;4.28;;;2.22;;
40252;SDS011;25972;51.854;4.534;2022-07-23T15:07:05;5.93;;;2.55;;
40252;SDS011;25972;51.854;4.534;2022-07-23T15:09:32;4.50;;;2.10;;
40252;SDS011;25972;51.854;4.534;2022-07-23T15:11:59;4.25;;;2.03;;
40252;SDS011;25972;51.854;4.534;2022-07-23T15:16:57;3.83;;;1.92;;
40252;SDS011;25972;51.854;4.534;2022-07-23T15:19:23;7.63;;;2.60;;
40252;SDS011;25972;51.854;4.534;2022-07-23T15:21:56;7.03;;;2.42;;
40252;SDS011;25972;51.854;4.534;2022-07-23T15:24:44;4.35;;;2.10;;
40252;SDS011;25972;51.854;4.534;2022-07-23T15:27:09;4.80;;;2.50;;
40252;SDS011;25972;51.854;4.534;2022-07-23T15:29:35;6.78;;;2.55;;
40252;SDS011;25972;51.854;4.534;2022-07-23T15:32:10;5.65;;;2.28;;
40252;SDS011;25972;51.854;4.534;2022-07-23T15:34:37;5.88;;;2.42;;
40252;SDS011;25972;51.854;4.534;2022-07-23T15:37:03;5.65;;;2.45;;
40252;SDS011;25972;51.854;4.534;2022-07-23T15:39:32;6.72;;;2.72;;
40252;SDS011;25972;51.854;4.534;2022-07-23T15:42:07;3.92;;;2.35;;
40252;SDS011;25972;51.854;4.534;2022-07-23T15:44:33;5.38;;;2.38;;
40252;SDS011;25972;51.854;4.534;2022-07-23T15:46:59;4.32;;;2.15;;